createdAt,value
2019-02-05T00:01:06.077Z,3.57
2019-02-05T00:03:33.273Z,3.53
2019-02-05T00:06:00.377Z,3.49
2019-02-05T00:08:27.559Z,3.60
2019-02-05T00:10:55.056Z,3.64
2019-02-05T00:13:22.198Z,3.70
2019-02-05T00:15:49.757Z,3.71
2019-02-05T00:18:16.824Z,3.69
2019-02-05T00:20:44.412Z,3.60
2019-02-05T00:23:11.589Z,3.57
2019-02-05T00:25:38.632Z,3.37
2019-02-05T00:28:06.108Z,3.21
2019-02-05T00:30:33.315Z,3.11
2019-02-05T00:33:00.354Z,3.04
2019-02-05T00:35:27.503Z,2.98
2019-02-05T00:37:54.710Z,2.88
2019-02-05T00:40:21.901Z,2.80
2019-02-05T00:42:49.086Z,2.60
2019-02-05T00:45:16.308Z,2.41
2019-02-05T00:47:43.368Z,2.20
2019-02-05T00:50:10.548Z,2.06
2019-02-05T00:52:37.984Z,1.96
2019-02-05T00:55:06.416Z,1.98
2019-02-05T00:57:33.592Z,2.07
2019-02-05T01:00:00.800Z,2.06
2019-02-05T01:02:27.861Z,2.11
2019-02-05T01:04:55.042Z,2.20
2019-02-05T01:07:23.276Z,2.26
2019-02-05T01:09:50.447Z,2.15
2019-02-05T01:12:17.731Z,2.07
2019-02-05T01:14:44.904Z,1.99
2019-02-05T01:17:12.059Z,1.97
2019-02-05T01:19:39.603Z,1.92
2019-02-05T01:22:06.968Z,1.91
2019-02-05T01:24:34.111Z,1.96
2019-02-05T01:27:01.288Z,1.99
2019-02-05T01:29:28.457Z,2.03
2019-02-05T01:31:55.597Z,2.07
2019-02-05T01:34:22.741Z,2.12
2019-02-05T01:36:49.907Z,2.27
2019-02-05T01:39:17.401Z,2.40
2019-02-05T01:41:44.569Z,2.46
2019-02-05T01:44:11.677Z,2.63
2019-02-05T01:46:38.862Z,2.66
2019-02-05T01:49:05.925Z,2.65
2019-02-05T01:51:33.158Z,2.66
2019-02-05T01:54:00.217Z,2.63
2019-02-05T01:56:27.817Z,2.61
2019-02-05T01:58:54.993Z,2.58
2019-02-05T02:01:22.196Z,2.56
2019-02-05T02:03:49.690Z,2.66
2019-02-05T02:06:16.880Z,2.70
2019-02-05T02:08:44.995Z,2.69
2019-02-05T02:11:12.147Z,2.67
2019-02-05T02:13:39.384Z,2.66
2019-02-05T02:16:06.530Z,2.66
2019-02-05T02:18:33.731Z,2.70
2019-02-05T02:21:00.928Z,2.74
2019-02-05T02:23:28.094Z,2.78
2019-02-05T02:25:55.193Z,2.81
2019-02-05T02:28:22.389Z,2.65
2019-02-05T02:30:49.438Z,2.35
2019-02-05T02:33:17.102Z,2.10
2019-02-05T02:35:44.187Z,1.94
2019-02-05T02:38:11.369Z,1.76
2019-02-05T02:40:38.508Z,1.64
2019-02-05T02:43:05.699Z,1.53
2019-02-05T02:45:32.837Z,1.44
2019-02-05T02:48:00.293Z,1.42
2019-02-05T02:50:27.760Z,1.42
2019-02-05T02:52:55.252Z,1.42
2019-02-05T02:55:22.417Z,1.46
2019-02-05T02:57:49.621Z,1.56
2019-02-05T03:00:17.716Z,1.70
2019-02-05T03:02:45.103Z,1.80
2019-02-05T03:05:14.033Z,1.93
2019-02-05T03:07:41.211Z,2.05
2019-02-05T03:10:12.457Z,2.13
2019-02-05T03:12:39.658Z,2.18
2019-02-05T03:15:07.190Z,2.25
2019-02-05T03:17:34.324Z,2.31
2019-02-05T03:20:01.539Z,2.34
2019-02-05T03:22:28.882Z,2.40
2019-02-05T03:24:56.018Z,2.44
2019-02-05T03:27:23.233Z,2.48
2019-02-05T03:29:50.975Z,2.54
2019-02-05T03:32:18.171Z,2.56
2019-02-05T03:34:45.388Z,2.58
2019-02-05T03:37:12.572Z,2.62
2019-02-05T03:39:39.719Z,2.65
2019-02-05T03:42:06.912Z,2.70
2019-02-05T03:44:34.081Z,2.66
2019-02-05T03:47:01.360Z,2.60
2019-02-05T03:49:29.230Z,2.52
2019-02-05T03:52:07.454Z,2.45
2019-02-05T03:55:10.789Z,2.37
2019-02-05T03:58:20.659Z,2.23
2019-02-05T04:01:25.198Z,2.07
2019-02-05T04:04:25.886Z,2.01
2019-02-05T04:07:21.526Z,2.06
2019-02-05T04:10:28.926Z,2.14
2019-02-05T04:13:25.860Z,2.26
2019-02-05T04:16:32.137Z,2.31
2019-02-05T04:19:22.626Z,2.46
2019-02-05T04:22:05.745Z,2.66
2019-02-05T04:25:09.114Z,2.70
2019-02-05T04:28:05.141Z,2.75
2019-02-05T04:30:42.218Z,2.86
2019-02-05T04:34:11.981Z,2.84
2019-02-05T04:37:03.620Z,2.87
2019-02-05T04:40:11.335Z,2.90
2019-02-05T04:42:48.386Z,2.79
2019-02-05T04:45:55.528Z,2.73
2019-02-05T04:49:10.531Z,2.66
2019-02-05T04:52:19.560Z,2.66
2019-02-05T04:55:27.980Z,2.79
2019-02-05T04:58:26.049Z,2.82
2019-02-05T05:01:25.752Z,2.89
2019-02-05T05:04:39.650Z,2.93
2019-02-05T05:07:52.054Z,2.83
2019-02-05T05:10:19.217Z,2.89
2019-02-05T05:12:46.379Z,2.75
2019-02-05T05:15:13.555Z,2.77
2019-02-05T05:17:40.610Z,2.71
2019-02-05T05:20:09.972Z,2.73
2019-02-05T05:22:37.136Z,2.80
2019-02-05T05:25:06.036Z,2.80
2019-02-05T05:27:33.457Z,2.76
2019-02-05T05:30:02.098Z,2.82
2019-02-05T05:32:29.584Z,2.88
2019-02-05T05:34:56.788Z,2.90
2019-02-05T05:37:23.998Z,2.90
2019-02-05T05:39:51.128Z,3.01
2019-02-05T05:42:18.276Z,2.96
2019-02-05T05:44:45.776Z,2.91
2019-02-05T05:47:13.004Z,2.96
2019-02-05T05:49:40.198Z,3.02
2019-02-05T05:52:07.379Z,3.15
2019-02-05T05:54:37.228Z,3.16
2019-02-05T05:57:04.380Z,3.13
2019-02-05T05:59:31.594Z,3.10
2019-02-05T06:01:58.739Z,3.10
2019-02-05T06:04:25.921Z,3.00
2019-02-05T06:06:53.098Z,2.99
2019-02-05T06:09:20.550Z,3.02
2019-02-05T06:11:47.751Z,2.89
2019-02-05T06:14:14.976Z,2.87
2019-02-05T06:16:42.164Z,3.00
2019-02-05T06:19:09.357Z,2.97
2019-02-05T06:21:36.561Z,2.97
2019-02-05T06:24:04.368Z,2.95
2019-02-05T06:26:31.521Z,2.95
2019-02-05T06:28:58.688Z,3.01
2019-02-05T06:31:25.895Z,3.01
2019-02-05T06:33:53.079Z,2.94
2019-02-05T06:36:20.301Z,2.95
2019-02-05T06:38:47.468Z,3.04
2019-02-05T06:41:14.542Z,3.02
2019-02-05T06:43:41.769Z,3.00
2019-02-05T06:46:08.941Z,2.97
2019-02-05T06:48:36.133Z,2.96
2019-02-05T06:51:03.335Z,2.94
2019-02-05T06:53:30.501Z,2.95
2019-02-05T06:55:57.693Z,2.93
2019-02-05T06:58:24.925Z,3.10
2019-02-05T07:00:52.071Z,3.18
2019-02-05T07:03:19.550Z,3.15
2019-02-05T07:05:46.780Z,3.07
2019-02-05T07:08:14.151Z,3.09
2019-02-05T07:10:41.464Z,3.11
2019-02-05T07:13:09.228Z,3.11
2019-02-05T07:15:36.624Z,3.12
2019-02-05T07:18:06.568Z,3.17
2019-02-05T07:20:34.987Z,3.26
2019-02-05T07:23:02.303Z,3.28
2019-02-05T07:25:29.608Z,3.31
2019-02-05T07:27:56.995Z,3.30
2019-02-05T07:30:24.500Z,3.32
2019-02-05T07:32:51.915Z,3.45
2019-02-05T07:35:19.341Z,3.44
2019-02-05T07:37:46.736Z,3.39
2019-02-05T07:40:15.659Z,3.45
2019-02-05T07:42:43.253Z,3.40
2019-02-05T07:45:12.482Z,3.47
2019-02-05T07:47:39.689Z,3.60
2019-02-05T07:50:10.201Z,3.70
2019-02-05T07:52:37.562Z,3.74
2019-02-05T07:55:05.307Z,3.73
2019-02-05T07:57:32.625Z,3.79
2019-02-05T08:00:00.232Z,3.93
2019-02-05T08:02:27.595Z,4.02
2019-02-05T08:04:54.955Z,3.96
2019-02-05T08:07:22.552Z,3.96
2019-02-05T08:09:49.775Z,3.87
2019-02-05T08:12:17.339Z,3.90
2019-02-05T08:14:45.503Z,3.92
2019-02-05T08:17:12.844Z,4.06
2019-02-05T08:19:40.209Z,4.10
2019-02-05T08:22:07.557Z,4.20
2019-02-05T08:24:34.946Z,4.23
2019-02-05T08:27:02.451Z,4.28
2019-02-05T08:29:29.736Z,4.42
2019-02-05T08:31:57.110Z,4.57
2019-02-05T08:34:24.731Z,4.58
2019-02-05T08:36:52.113Z,4.63
2019-02-05T08:39:19.437Z,4.67
2019-02-05T08:41:46.824Z,4.78
2019-02-05T08:44:14.436Z,4.77
2019-02-05T08:46:41.677Z,4.82
2019-02-05T08:49:09.103Z,4.93
2019-02-05T08:51:36.331Z,4.90
2019-02-05T08:54:03.888Z,4.84
2019-02-05T08:56:31.239Z,4.76
2019-02-05T08:58:58.571Z,4.83
2019-02-05T09:01:25.874Z,4.79
2019-02-05T09:03:53.444Z,4.76
2019-02-05T09:06:20.739Z,4.62
2019-02-05T09:08:48.094Z,4.64
2019-02-05T09:11:15.474Z,4.73
2019-02-05T09:13:42.794Z,4.93
2019-02-05T09:16:10.197Z,5.11
2019-02-05T09:18:39.102Z,5.14
2019-02-05T09:21:06.300Z,5.24
2019-02-05T09:23:34.031Z,5.35
2019-02-05T09:26:01.412Z,5.49
2019-02-05T09:28:28.700Z,5.60
2019-02-05T09:30:55.985Z,5.77
2019-02-05T09:33:23.325Z,5.88
2019-02-05T09:35:50.517Z,5.97
2019-02-05T09:38:20.467Z,5.92
2019-02-05T09:40:47.893Z,5.96
2019-02-05T09:43:15.538Z,6.08
2019-02-05T09:45:42.898Z,6.23
2019-02-05T09:48:10.243Z,6.29
2019-02-05T09:50:44.652Z,6.39
2019-02-05T09:53:10.450Z,6.51
2019-02-05T09:55:38.297Z,6.67
2019-02-05T09:58:05.639Z,6.78
2019-02-05T10:00:35.494Z,6.75
2019-02-05T10:03:03.371Z,6.85
2019-02-05T10:05:31.289Z,7.11
2019-02-05T10:07:58.636Z,7.30
2019-02-05T10:10:26.288Z,7.54
2019-02-05T10:12:53.743Z,7.71
2019-02-05T10:15:23.934Z,7.72
2019-02-05T10:17:51.346Z,7.64
2019-02-05T10:20:20.032Z,7.64
2019-02-05T10:22:47.786Z,7.77
2019-02-05T10:25:15.692Z,7.92
2019-02-05T10:27:43.294Z,8.07
2019-02-05T10:30:27.600Z,8.13
2019-02-05T10:32:55.598Z,8.22
2019-02-05T10:35:23.036Z,8.24
2019-02-05T10:37:50.578Z,8.38
2019-02-05T10:40:18.773Z,8.58
2019-02-05T10:42:46.098Z,8.78
2019-02-05T10:45:14.833Z,9.03
2019-02-05T10:47:42.169Z,9.19
2019-02-05T10:50:11.081Z,9.25
2019-02-05T10:52:39.240Z,9.36
2019-02-05T10:55:08.337Z,9.40
2019-02-05T10:57:35.669Z,9.41
2019-02-05T11:00:09.036Z,9.20
2019-02-05T11:02:36.090Z,9.22
2019-02-05T11:05:04.812Z,9.46
2019-02-05T11:07:32.137Z,9.68
2019-02-05T11:09:59.716Z,9.96
2019-02-05T11:12:27.051Z,10.14
2019-02-05T11:14:54.722Z,10.08
2019-02-05T11:17:22.745Z,10.02
2019-02-05T11:19:50.046Z,10.10
2019-02-05T11:22:17.796Z,10.21
2019-02-05T11:24:45.401Z,10.09
2019-02-05T11:27:12.784Z,9.74
2019-02-05T11:29:40.251Z,9.58
2019-02-05T11:32:07.724Z,9.48
2019-02-05T11:34:35.036Z,9.51
2019-02-05T11:37:02.399Z,9.46
2019-02-05T11:39:30.024Z,9.19
2019-02-05T11:41:57.447Z,9.04
2019-02-05T11:44:24.874Z,8.86
2019-02-05T11:46:52.434Z,8.49
2019-02-05T11:49:19.854Z,8.06
2019-02-05T11:51:47.178Z,7.64
2019-02-05T11:54:14.530Z,7.39
2019-02-05T11:56:41.734Z,7.29
2019-02-05T11:59:09.120Z,7.26
2019-02-05T12:01:39.253Z,7.27
2019-02-05T12:04:06.916Z,7.37
2019-02-05T12:06:34.306Z,7.36
2019-02-05T12:09:01.750Z,7.29
2019-02-05T12:11:29.359Z,7.26
2019-02-05T12:13:56.756Z,7.13
2019-02-05T12:16:24.155Z,6.98
2019-02-05T12:18:51.509Z,6.84
2019-02-05T12:21:18.866Z,6.86
2019-02-05T12:23:46.374Z,6.94
2019-02-05T12:26:13.698Z,6.95
2019-02-05T12:28:41.432Z,6.97
2019-02-05T12:31:08.869Z,7.04
2019-02-05T12:33:36.160Z,7.09
2019-02-05T12:36:04.189Z,7.34
2019-02-05T12:38:31.498Z,7.59
2019-02-05T12:40:59.173Z,8.04
2019-02-05T12:43:26.504Z,8.30
2019-02-05T12:45:53.878Z,8.58
2019-02-05T12:48:21.263Z,8.76
2019-02-05T12:50:48.876Z,8.88
2019-02-05T12:53:16.366Z,9.06
2019-02-05T12:55:43.713Z,9.16
2019-02-05T12:58:11.183Z,9.34
2019-02-05T13:00:40.477Z,9.52
2019-02-05T13:03:08.629Z,9.65
2019-02-05T13:05:36.109Z,9.80
2019-02-05T13:08:05.537Z,9.95
2019-02-05T13:10:35.232Z,10.13
2019-02-05T13:13:03.416Z,10.20
2019-02-05T13:15:30.762Z,10.21
2019-02-05T13:17:58.320Z,9.94
2019-02-05T13:20:27.172Z,9.74
2019-02-05T13:22:54.846Z,9.68
2019-02-05T13:25:23.777Z,9.66
2019-02-05T13:27:51.386Z,9.54
2019-02-05T13:30:21.077Z,9.41
2019-02-05T13:32:48.688Z,9.31
2019-02-05T13:35:16.285Z,9.25
2019-02-05T13:37:43.771Z,9.22
2019-02-05T13:40:14.319Z,9.26
2019-02-05T13:42:41.666Z,9.33
2019-02-05T13:45:09.663Z,9.34
2019-02-05T13:47:37.111Z,9.32
2019-02-05T13:50:07.401Z,9.15
2019-02-05T13:52:34.720Z,9.02
2019-02-05T13:55:04.389Z,8.88
2019-02-05T13:57:31.756Z,8.80
2019-02-05T13:59:59.115Z,8.82
2019-02-05T14:02:26.400Z,8.86
2019-02-05T14:04:53.695Z,8.90
2019-02-05T14:07:21.380Z,8.98
2019-02-05T14:09:48.768Z,8.95
2019-02-05T14:12:16.453Z,8.88
2019-02-05T14:14:43.787Z,8.88
2019-02-05T14:17:11.103Z,8.92
2019-02-05T14:19:38.547Z,8.94
2019-02-05T14:22:05.875Z,8.93
2019-02-05T14:24:33.297Z,8.94
2019-02-05T14:27:00.656Z,8.97
2019-02-05T14:29:27.963Z,8.88
2019-02-05T14:31:56.403Z,8.74
2019-02-05T14:34:23.754Z,8.45
2019-02-05T14:36:51.093Z,8.16
2019-02-05T14:39:18.710Z,7.77
2019-02-05T14:41:46.119Z,7.42
2019-02-05T14:44:13.497Z,7.16
2019-02-05T14:46:40.706Z,7.01
2019-02-05T14:49:08.640Z,6.93
2019-02-05T14:51:36.139Z,6.96
2019-02-05T14:54:03.847Z,7.05
2019-02-05T14:56:31.447Z,7.07
2019-02-05T14:58:58.797Z,7.14
2019-02-05T15:01:26.107Z,7.20
2019-02-05T15:03:53.841Z,7.25
2019-02-05T15:06:21.426Z,7.21
2019-02-05T15:08:48.800Z,7.17
2019-02-05T15:11:16.168Z,7.23
2019-02-05T15:13:43.559Z,7.24
2019-02-05T15:16:10.919Z,7.16
2019-02-05T15:18:38.285Z,7.13
2019-02-05T15:21:05.580Z,7.02
2019-02-05T15:23:33.293Z,6.96
2019-02-05T15:26:00.864Z,6.94
2019-02-05T15:28:28.077Z,6.92
2019-02-05T15:30:55.409Z,6.88
2019-02-05T15:33:48.622Z,6.87
2019-02-05T15:36:35.852Z,6.86
2019-02-05T15:39:12.080Z,6.86
2019-02-05T15:41:39.390Z,6.85
2019-02-05T15:44:06.733Z,6.86
2019-02-05T15:46:34.152Z,6.83
2019-02-05T15:49:01.653Z,6.79
2019-02-05T15:51:29.300Z,6.70
2019-02-05T15:53:56.569Z,6.64
2019-02-05T15:56:23.985Z,6.55
2019-02-05T15:58:51.305Z,6.50
2019-02-05T16:01:18.722Z,6.51
2019-02-05T16:03:46.481Z,6.47
2019-02-05T16:06:13.819Z,6.42
2019-02-05T16:08:41.246Z,6.43
2019-02-05T16:11:08.577Z,6.42
2019-02-05T16:13:36.265Z,6.38
2019-02-05T16:16:04.529Z,6.37
2019-02-05T16:18:32.271Z,6.29
2019-02-05T16:20:59.884Z,6.40
2019-02-05T16:23:27.313Z,6.39
2019-02-05T16:25:54.638Z,6.26
2019-02-05T16:28:22.047Z,6.14
2019-02-05T16:30:49.670Z,6.06
2019-02-05T16:33:16.990Z,5.99
2019-02-05T16:35:44.232Z,5.94
2019-02-05T16:38:11.603Z,5.91
2019-02-05T16:40:39.477Z,5.88
2019-02-05T16:43:06.820Z,5.81
2019-02-05T16:45:34.315Z,5.78
2019-02-05T16:48:01.645Z,5.76
2019-02-05T16:50:37.671Z,5.76
2019-02-05T16:53:06.161Z,5.74
2019-02-05T16:55:33.482Z,5.77
2019-02-05T16:58:00.920Z,5.74
2019-02-05T17:00:30.095Z,5.83
2019-02-05T17:02:57.797Z,5.78
2019-02-05T17:05:26.284Z,5.71
2019-02-05T17:07:53.758Z,5.69
2019-02-05T17:10:21.202Z,5.66
2019-02-05T17:12:48.616Z,5.60
2019-02-05T17:15:16.466Z,5.57
2019-02-05T17:17:44.009Z,5.56
2019-02-05T17:20:17.558Z,5.55
2019-02-05T17:22:44.890Z,5.52
2019-02-05T17:25:13.674Z,5.47
2019-02-05T17:27:41.416Z,5.44
2019-02-05T17:30:11.986Z,5.48
2019-02-05T17:32:40.472Z,5.50
2019-02-05T17:35:08.378Z,5.48
2019-02-05T17:37:35.749Z,5.53
2019-02-05T17:40:04.392Z,5.51
2019-02-05T17:42:31.991Z,5.47
2019-02-05T17:44:59.437Z,5.46
2019-02-05T17:47:26.759Z,5.44
2019-02-05T17:49:54.128Z,5.50
2019-02-05T17:52:21.535Z,5.47
2019-02-05T17:54:48.880Z,5.41
2019-02-05T17:57:16.324Z,5.38
2019-02-05T17:59:43.577Z,5.37
2019-02-05T18:02:11.139Z,5.33
2019-02-05T18:04:38.471Z,5.34
2019-02-05T18:07:06.163Z,5.32
2019-02-05T18:09:33.489Z,5.32
2019-02-05T18:12:00.905Z,5.32
2019-02-05T18:14:28.307Z,5.32
2019-02-05T18:16:55.662Z,5.36
2019-02-05T18:19:23.445Z,5.38
2019-02-05T18:21:50.799Z,5.44
2019-02-05T18:24:19.098Z,5.45
2019-02-05T18:26:46.483Z,5.36
2019-02-05T18:29:13.830Z,5.34
2019-02-05T18:31:41.187Z,5.32
2019-02-05T18:34:08.563Z,5.31
2019-02-05T18:36:36.195Z,5.31
2019-02-05T18:39:07.376Z,5.31
2019-02-05T18:41:34.731Z,5.32
2019-02-05T18:44:02.124Z,5.35
2019-02-05T18:46:29.420Z,5.39
2019-02-05T18:49:04.550Z,5.40
2019-02-05T18:51:26.062Z,5.38
2019-02-05T18:53:53.800Z,5.37
2019-02-05T18:56:21.164Z,5.43
2019-02-05T18:58:50.486Z,5.49
2019-02-05T19:01:17.769Z,5.49
2019-02-05T19:03:45.200Z,5.43
2019-02-05T19:06:12.498Z,5.41
2019-02-05T19:08:39.832Z,5.39
2019-02-05T19:11:07.873Z,5.34
2019-02-05T19:13:35.292Z,5.34
2019-02-05T19:16:02.736Z,5.35
2019-02-05T19:18:30.442Z,5.35
2019-02-05T19:20:57.734Z,5.35
2019-02-05T19:23:25.559Z,5.38
2019-02-05T19:25:58.891Z,5.49
2019-02-05T19:28:37.000Z,5.48
2019-02-05T19:31:25.281Z,5.45
2019-02-05T19:33:52.880Z,5.45
2019-02-05T19:36:20.192Z,5.42
2019-02-05T19:38:47.530Z,5.38
2019-02-05T19:41:14.919Z,5.36
2019-02-05T19:43:42.201Z,5.32
2019-02-05T19:46:38.332Z,5.32
2019-02-05T19:49:22.060Z,5.31
2019-02-05T19:51:49.618Z,5.30
2019-02-05T19:54:17.331Z,5.28
2019-02-05T19:56:44.638Z,5.28
2019-02-05T19:59:12.442Z,5.30
2019-02-05T20:01:39.758Z,5.27
2019-02-05T20:04:07.072Z,5.25
2019-02-05T20:06:34.513Z,5.25
2019-02-05T20:09:03.568Z,5.21
2019-02-05T20:11:31.177Z,5.18
2019-02-05T20:13:59.670Z,5.16
2019-02-05T20:16:27.007Z,5.14
2019-02-05T20:18:54.470Z,5.12
2019-02-05T20:21:21.844Z,5.14
2019-02-05T20:23:49.109Z,5.11
2019-02-05T20:26:16.743Z,5.18
2019-02-05T20:28:44.233Z,5.16
2019-02-05T20:31:11.479Z,5.14
2019-02-05T20:33:49.424Z,5.13
2019-02-05T20:36:08.164Z,5.15
2019-02-05T20:38:35.376Z,5.14
2019-02-05T20:41:02.637Z,5.14
2019-02-05T20:43:29.818Z,5.21
2019-02-05T20:45:57.549Z,5.25
2019-02-05T20:48:24.736Z,5.24
2019-02-05T20:50:51.889Z,5.25
2019-02-05T20:53:19.088Z,5.21
2019-02-05T20:55:46.339Z,5.21
2019-02-05T20:58:13.654Z,5.15
2019-02-05T21:00:40.906Z,5.19
2019-02-05T21:03:08.132Z,5.21
2019-02-05T21:05:35.944Z,5.19
2019-02-05T21:08:03.404Z,5.17
2019-02-05T21:10:31.113Z,5.14
2019-02-05T21:12:58.557Z,5.09
2019-02-05T21:15:25.810Z,5.06
2019-02-05T21:17:53.004Z,5.07
2019-02-05T21:20:28.956Z,5.06
2019-02-05T21:22:49.712Z,5.03
2019-02-05T21:25:18.202Z,5.00
2019-02-05T21:27:45.504Z,4.97
2019-02-05T21:30:15.161Z,4.98
2019-02-05T21:32:42.454Z,4.96
2019-02-05T21:35:09.984Z,4.99
2019-02-05T21:37:37.264Z,5.10
2019-02-05T21:40:05.998Z,5.10
2019-02-05T21:42:33.944Z,5.09
2019-02-05T21:45:01.238Z,5.06
2019-02-05T21:47:28.627Z,5.04
2019-02-05T21:49:55.843Z,5.05
2019-02-05T21:52:23.086Z,5.01
2019-02-05T21:54:50.253Z,4.96
2019-02-05T21:57:17.512Z,4.93
2019-02-05T21:59:44.635Z,4.93
2019-02-05T22:02:12.390Z,4.91
2019-02-05T22:04:40.028Z,4.97
2019-02-05T22:07:07.935Z,5.05
2019-02-05T22:09:35.212Z,5.06
2019-02-05T22:12:02.400Z,5.02
2019-02-05T22:14:29.583Z,4.99
2019-02-05T22:16:57.380Z,5.00
2019-02-05T22:19:24.602Z,4.95
2019-02-05T22:21:51.776Z,4.87
2019-02-05T22:24:19.021Z,4.78
2019-02-05T22:26:46.539Z,4.69
2019-02-05T22:29:13.717Z,4.59
2019-02-05T22:31:40.935Z,4.46
2019-02-05T22:34:08.784Z,4.27
2019-02-05T22:36:35.951Z,4.04
2019-02-05T22:39:07.321Z,3.81
2019-02-05T22:41:34.436Z,3.52
2019-02-05T22:44:01.982Z,3.28
2019-02-05T22:46:29.578Z,3.05
2019-02-05T22:48:57.107Z,2.84
2019-02-05T22:51:24.267Z,2.70
2019-02-05T22:53:51.478Z,2.58
2019-02-05T22:56:18.951Z,2.44
2019-02-05T22:58:46.564Z,2.34
2019-02-05T23:01:45.360Z,2.22
2019-02-05T23:04:50.859Z,2.15
2019-02-05T23:07:18.759Z,2.04
2019-02-05T23:10:12.396Z,1.95
2019-02-05T23:12:52.110Z,1.90
2019-02-05T23:15:24.171Z,1.85
2019-02-05T23:17:51.853Z,1.77
2019-02-05T23:20:20.718Z,1.71
2019-02-05T23:22:48.230Z,1.68
2019-02-05T23:25:15.496Z,1.64
2019-02-05T23:27:42.729Z,1.61
2019-02-05T23:30:32.745Z,1.52
2019-02-05T23:33:00.197Z,1.48
2019-02-05T23:35:27.698Z,1.55
2019-02-05T23:37:54.848Z,1.50
2019-02-05T23:40:22.195Z,1.44
2019-02-05T23:42:49.344Z,1.38
2019-02-05T23:45:16.570Z,1.32
2019-02-05T23:47:43.649Z,1.21
2019-02-05T23:50:12.501Z,1.16
2019-02-05T23:52:39.988Z,1.16
2019-02-05T23:55:08.921Z,1.16
2019-02-05T23:57:36.107Z,1.09
